createdAt,value
2019-03-13T00:01:44.206Z,99740.60
2019-03-13T00:04:13.737Z,99730.62
2019-03-13T00:06:43.246Z,99741.46
2019-03-13T00:09:13.374Z,99743.04
2019-03-13T00:11:42.793Z,99737.66
2019-03-13T00:14:12.304Z,99738.92
2019-03-13T00:16:42.153Z,99731.02
2019-03-13T00:19:11.568Z,99729.27
2019-03-13T00:21:41.034Z,99726.73
2019-03-13T00:24:10.591Z,99726.18
2019-03-13T00:26:40.090Z,99725.23
2019-03-13T00:29:09.479Z,99720.51
2019-03-13T00:31:38.935Z,99716.57
2019-03-13T00:34:08.450Z,99713.61
2019-03-13T00:36:37.962Z,99717.08
2019-03-13T00:39:07.855Z,99713.86
2019-03-13T00:41:37.299Z,99713.95
2019-03-13T00:44:06.843Z,99715.01
2019-03-13T00:46:36.515Z,99716.41
2019-03-13T00:49:06.034Z,99708.88
2019-03-13T00:51:36.967Z,99707.88
2019-03-13T00:54:08.115Z,99709.53
2019-03-13T00:56:37.783Z,99710.44
2019-03-13T00:59:07.377Z,99715.73
2019-03-13T01:01:45.703Z,99709.53
2019-03-13T01:04:34.148Z,99710.03
2019-03-13T01:07:09.071Z,99703.89
2019-03-13T01:09:38.645Z,99698.66
2019-03-13T01:12:08.244Z,99701.63
2019-03-13T01:14:37.696Z,99702.48
2019-03-13T01:17:08.007Z,99701.42
2019-03-13T01:19:37.524Z,99696.80
2019-03-13T01:22:07.170Z,99699.10
2019-03-13T01:24:36.616Z,99699.55
2019-03-13T01:27:06.122Z,99689.23
2019-03-13T01:29:35.589Z,99694.56
2019-03-13T01:32:33.248Z,99689.91
2019-03-13T01:35:11.299Z,99684.42
2019-03-13T01:37:40.797Z,99679.80
2019-03-13T01:40:11.356Z,99680.02
2019-03-13T01:42:40.891Z,99682.69
2019-03-13T01:45:11.074Z,99682.36
2019-03-13T01:47:40.671Z,99684.27
2019-03-13T01:50:10.444Z,99695.44
2019-03-13T01:52:39.894Z,99682.72
2019-03-13T01:55:10.312Z,99692.56
2019-03-13T01:57:41.173Z,99684.20
2019-03-13T02:00:11.860Z,99685.06
2019-03-13T02:02:41.365Z,99685.02
2019-03-13T02:05:11.011Z,99682.41
2019-03-13T02:07:40.453Z,99691.23
2019-03-13T02:10:10.574Z,99691.34
2019-03-13T02:12:40.130Z,99689.38
2019-03-13T02:15:10.520Z,99694.36
2019-03-13T02:17:39.955Z,99691.13
2019-03-13T02:20:09.975Z,99688.14
2019-03-13T02:22:39.573Z,99693.03
2019-03-13T02:25:09.028Z,99698.54
2019-03-13T02:27:38.675Z,99697.42
2019-03-13T02:30:09.449Z,99700.59
2019-03-13T02:32:38.969Z,99700.14
2019-03-13T02:35:08.418Z,99704.36
2019-03-13T02:37:37.863Z,99704.77
2019-03-13T02:40:08.827Z,99699.70
2019-03-13T02:42:38.383Z,99710.25
2019-03-13T02:45:09.233Z,99709.36
2019-03-13T02:47:38.723Z,99714.27
2019-03-13T02:50:08.926Z,99714.09
2019-03-13T02:52:38.356Z,99717.25
2019-03-13T02:55:08.313Z,99717.81
2019-03-13T02:57:37.861Z,99715.84
2019-03-13T03:00:11.533Z,99720.84
2019-03-13T03:02:53.707Z,99719.87
2019-03-13T03:05:23.264Z,99722.78
2019-03-13T03:07:52.765Z,99725.20
2019-03-13T03:10:22.228Z,99728.84
2019-03-13T03:12:51.664Z,99727.59
2019-03-13T03:15:21.289Z,99714.52
2019-03-13T03:17:50.844Z,99721.33
2019-03-13T03:20:21.105Z,99720.67
2019-03-13T03:22:50.568Z,99723.61
2019-03-13T03:25:20.203Z,99731.53
2019-03-13T03:27:49.647Z,99730.80
2019-03-13T03:30:21.342Z,99730.72
2019-03-13T03:32:50.939Z,99723.64
2019-03-13T03:35:20.430Z,99724.50
2019-03-13T03:37:49.959Z,99729.65
2019-03-13T03:40:22.333Z,99744.11
2019-03-13T03:42:50.850Z,99731.48
2019-03-13T03:45:20.351Z,99737.00
2019-03-13T03:47:49.824Z,99738.27
2019-03-13T03:50:19.371Z,99738.27
2019-03-13T03:52:48.876Z,99740.52
2019-03-13T03:55:18.473Z,99744.84
2019-03-13T03:57:47.908Z,99732.63
2019-03-13T04:00:17.735Z,99742.39
2019-03-13T04:02:47.404Z,99749.87
2019-03-13T04:05:16.970Z,99746.31
2019-03-13T04:07:46.702Z,99743.34
2019-03-13T04:10:16.184Z,99751.84
2019-03-13T04:12:45.671Z,99747.06
2019-03-13T04:15:15.739Z,99762.20
2019-03-13T04:17:45.315Z,99756.53
2019-03-13T04:20:14.984Z,99751.88
2019-03-13T04:22:44.528Z,99755.39
2019-03-13T04:25:32.185Z,99747.51
2019-03-13T04:28:01.985Z,99759.27
2019-03-13T04:30:31.424Z,99758.70
2019-03-13T04:33:00.988Z,99763.23
2019-03-13T04:35:30.521Z,99766.58
2019-03-13T04:38:00.028Z,99773.07
2019-03-13T04:40:29.693Z,99770.09
2019-03-13T04:42:59.457Z,99768.33
2019-03-13T04:45:28.989Z,99762.62
2019-03-13T04:47:58.538Z,99772.98
2019-03-13T04:50:27.963Z,99761.39
2019-03-13T04:52:58.593Z,99759.67
2019-03-13T04:55:28.149Z,99758.86
2019-03-13T04:57:58.252Z,99762.91
2019-03-13T05:00:27.648Z,99762.62
2019-03-13T05:02:57.159Z,99763.14
2019-03-13T05:06:06.090Z,99765.39
2019-03-13T05:09:10.263Z,99761.91
2019-03-13T05:11:39.678Z,99767.14
2019-03-13T05:14:09.145Z,99765.59
2019-03-13T05:16:38.729Z,99774.40
2019-03-13T05:19:08.181Z,99777.61
2019-03-13T05:21:37.572Z,99770.22
2019-03-13T05:24:08.076Z,99767.98
2019-03-13T05:26:42.726Z,99769.99
2019-03-13T05:29:12.265Z,99776.44
2019-03-13T05:31:41.794Z,99783.87
2019-03-13T05:34:12.670Z,99785.06
2019-03-13T05:36:42.516Z,99782.41
2019-03-13T05:39:11.996Z,99781.47
2019-03-13T05:41:41.508Z,99788.34
2019-03-13T05:44:11.014Z,99799.20
2019-03-13T05:46:40.460Z,99799.57
2019-03-13T05:49:10.059Z,99798.96
2019-03-13T05:51:39.675Z,99798.34
2019-03-13T05:54:09.293Z,99800.80
2019-03-13T05:56:40.763Z,99804.06
2019-03-13T05:59:10.046Z,99799.84
2019-03-13T06:01:39.593Z,99798.11
2019-03-13T06:04:09.141Z,99802.22
2019-03-13T06:06:39.784Z,99805.02
2019-03-13T06:09:09.586Z,99807.72
2019-03-13T06:11:38.983Z,99815.57
2019-03-13T06:14:08.498Z,99814.41
2019-03-13T06:16:38.055Z,99821.52
2019-03-13T06:19:08.327Z,99816.38
2019-03-13T06:21:37.880Z,99814.89
2019-03-13T06:24:07.365Z,99820.05
2019-03-13T06:26:37.057Z,99816.12
2019-03-13T06:29:07.177Z,99817.96
2019-03-13T06:31:36.609Z,99819.64
2019-03-13T06:34:06.503Z,99815.12
2019-03-13T06:36:36.663Z,99818.06
2019-03-13T06:39:07.826Z,99819.50
2019-03-13T06:41:37.325Z,99819.68
2019-03-13T06:44:06.852Z,99819.44
2019-03-13T06:46:36.295Z,99819.20
2019-03-13T06:49:06.459Z,99815.48
2019-03-13T06:51:36.084Z,99814.29
2019-03-13T06:54:05.557Z,99817.72
2019-03-13T06:56:35.004Z,99814.09
2019-03-13T06:59:15.885Z,99811.23
2019-03-13T07:02:13.418Z,99818.13
2019-03-13T07:05:01.731Z,99816.13
2019-03-13T07:07:38.446Z,99816.39
2019-03-13T07:10:26.467Z,99820.16
2019-03-13T07:13:05.326Z,99818.03
2019-03-13T07:15:48.899Z,99819.13
2019-03-13T07:18:24.241Z,99816.02
2019-03-13T07:21:29.549Z,99813.52
2019-03-13T07:24:12.780Z,99815.86
2019-03-13T07:27:16.079Z,99813.81
2019-03-13T07:29:57.964Z,99811.41
2019-03-13T07:32:40.598Z,99811.45
2019-03-13T07:35:38.176Z,99809.52
2019-03-13T07:38:16.005Z,99827.05
2019-03-13T07:41:06.796Z,99817.81
2019-03-13T07:43:53.990Z,99814.67
2019-03-13T07:47:00.454Z,99815.68
2019-03-13T07:50:01.311Z,99814.23
2019-03-13T07:52:50.839Z,99806.60
2019-03-13T07:55:38.407Z,99805.71
2019-03-13T07:58:24.143Z,99800.35
2019-03-13T08:01:27.953Z,99794.48
2019-03-13T08:04:19.255Z,99794.52
2019-03-13T08:07:17.766Z,99790.13
2019-03-13T08:13:27.401Z,99778.38
2019-03-13T08:16:08.843Z,99784.64
2019-03-13T08:19:03.359Z,99786.80
2019-03-13T08:21:50.573Z,99782.45
2019-03-13T08:24:39.004Z,99787.96
2019-03-13T08:27:36.710Z,99780.03
2019-03-13T08:30:20.564Z,99780.03
2019-03-13T08:33:09.463Z,99774.28
2019-03-13T08:35:56.687Z,99776.01
2019-03-13T08:38:47.933Z,99776.88
2019-03-13T08:41:30.131Z,99772.45
2019-03-13T08:44:16.980Z,99776.44
2019-03-13T08:47:17.386Z,99772.02
2019-03-13T08:49:59.122Z,99774.81
2019-03-13T08:52:41.582Z,99780.89
2019-03-13T08:55:48.227Z,99777.20
2019-03-13T08:58:30.664Z,99771.51
2019-03-13T09:01:24.835Z,99769.38
2019-03-13T09:04:09.817Z,99775.28
2019-03-13T09:07:16.816Z,99774.42
2019-03-13T09:10:08.173Z,99784.37
2019-03-13T09:13:01.666Z,99774.77
2019-03-13T09:15:42.958Z,99763.05
2019-03-13T09:18:23.902Z,99764.44
2019-03-13T09:21:18.180Z,99767.81
2019-03-13T09:24:16.558Z,99762.20
2019-03-13T09:27:16.675Z,99760.68
2019-03-13T09:29:57.670Z,99757.29
2019-03-13T09:32:43.783Z,99747.66
2019-03-13T09:35:24.026Z,99753.11
2019-03-13T09:38:05.540Z,99754.69
2019-03-13T09:40:56.888Z,99750.97
2019-03-13T09:43:42.666Z,99756.42
2019-03-13T09:46:19.765Z,99754.86
2019-03-13T09:49:08.394Z,99759.36
2019-03-13T09:51:55.161Z,99752.20
2019-03-13T09:54:38.534Z,99756.48
2019-03-13T09:57:35.588Z,99759.39
2019-03-13T10:00:25.660Z,99751.76
2019-03-13T10:03:12.590Z,99729.33
2019-03-13T10:06:06.887Z,99728.00
2019-03-13T10:08:54.191Z,99718.14
2019-03-13T10:11:28.979Z,99724.66
2019-03-13T10:14:17.420Z,99726.55
2019-03-13T10:17:18.176Z,99723.63
2019-03-13T10:20:18.771Z,99721.28
2019-03-13T10:22:59.023Z,99711.02
2019-03-13T10:25:53.417Z,99713.81
2019-03-13T10:28:28.636Z,99724.31
2019-03-13T10:31:14.639Z,99719.64
2019-03-13T10:33:59.858Z,99720.52
2019-03-13T10:36:54.390Z,99717.34
2019-03-13T10:39:41.687Z,99705.15
2019-03-13T10:42:32.986Z,99705.07
2019-03-13T10:45:19.996Z,99703.28
2019-03-13T10:48:17.260Z,99696.55
2019-03-13T10:51:05.762Z,99699.35
2019-03-13T10:53:51.409Z,99694.55
2019-03-13T10:56:43.197Z,99689.19
2019-03-13T10:59:41.008Z,99683.18
2019-03-13T11:02:28.167Z,99675.81
2019-03-13T11:05:12.265Z,99671.89
2019-03-13T11:07:59.304Z,99664.39
2019-03-13T11:10:34.740Z,99656.46
2019-03-13T11:13:29.025Z,99639.91
2019-03-13T11:16:10.094Z,99634.86
2019-03-13T11:18:54.542Z,99630.60
2019-03-13T11:21:46.121Z,99630.50
2019-03-13T11:24:25.042Z,99633.11
2019-03-13T11:27:01.999Z,99629.22
2019-03-13T11:29:56.280Z,99631.97
2019-03-13T11:32:44.623Z,99634.29
2019-03-13T11:35:32.041Z,99628.30
2019-03-13T11:38:21.106Z,99639.97
2019-03-13T11:41:15.534Z,99640.40
2019-03-13T11:44:02.567Z,99636.71
2019-03-13T11:46:48.057Z,99642.55
2019-03-13T11:49:35.828Z,99632.97
2019-03-13T11:52:39.510Z,99641.84
2019-03-13T11:55:28.020Z,99639.65
2019-03-13T11:58:19.162Z,99631.20
2019-03-13T12:01:07.627Z,99625.27
2019-03-13T12:04:01.680Z,99627.30
2019-03-13T12:06:44.845Z,99612.78
2019-03-13T12:09:38.850Z,99610.19
2019-03-13T12:12:33.454Z,99604.31
2019-03-13T12:15:15.266Z,99599.08
2019-03-13T12:18:03.765Z,99594.27
2019-03-13T12:20:38.891Z,99591.15
2019-03-13T12:23:23.973Z,99591.55
2019-03-13T12:26:07.687Z,99589.86
2019-03-13T12:28:56.099Z,99585.95
2019-03-13T12:31:56.375Z,99580.78
2019-03-13T12:34:43.497Z,99591.97
2019-03-13T12:37:21.448Z,99588.26
2019-03-13T12:40:12.487Z,99596.05
2019-03-13T12:43:03.924Z,99592.38
2019-03-13T12:45:51.206Z,99586.65
2019-03-13T12:48:30.726Z,99583.44
2019-03-13T12:51:06.203Z,99573.75
2019-03-13T12:53:45.705Z,99575.33
2019-03-13T12:56:30.070Z,99566.70
2019-03-13T12:59:20.997Z,99582.37
2019-03-13T13:02:24.705Z,99567.22
2019-03-13T13:05:11.105Z,99582.27
2019-03-13T13:07:58.418Z,99570.49
2019-03-13T13:10:59.466Z,99571.22
2019-03-13T13:13:50.337Z,99569.86
2019-03-13T13:16:33.923Z,99563.97
2019-03-13T13:19:03.459Z,99564.83
2019-03-13T13:21:32.922Z,99562.61
2019-03-13T13:24:02.371Z,99562.30
2019-03-13T13:26:31.872Z,99562.12
2019-03-13T13:29:01.410Z,99558.30
2019-03-13T13:31:31.062Z,99550.52
2019-03-13T13:34:00.463Z,99550.47
2019-03-13T13:36:29.929Z,99552.92
2019-03-13T13:38:59.484Z,99538.66
2019-03-13T13:41:28.928Z,99546.05
2019-03-13T13:43:58.336Z,99543.37
2019-03-13T13:46:32.581Z,99544.08
2019-03-13T13:49:02.189Z,99546.19
2019-03-13T13:51:32.871Z,99540.47
2019-03-13T13:54:02.509Z,99543.34
2019-03-13T13:56:32.001Z,99544.67
2019-03-13T13:59:01.515Z,99550.66
2019-03-13T14:01:30.993Z,99548.93
2019-03-13T14:04:00.403Z,99550.69
2019-03-13T14:06:29.919Z,99551.63
2019-03-13T14:08:59.410Z,99546.79
2019-03-13T14:11:29.254Z,99550.70
2019-03-13T14:13:58.783Z,99548.14
2019-03-13T14:16:28.276Z,99544.23
2019-03-13T14:18:57.673Z,99542.05
2019-03-13T14:21:27.145Z,99540.66
2019-03-13T14:23:56.731Z,99536.13
2019-03-13T14:26:26.185Z,99534.44
2019-03-13T14:28:55.618Z,99540.59
2019-03-13T14:31:25.300Z,99538.41
2019-03-13T14:33:54.841Z,99533.47
2019-03-13T14:36:24.335Z,99533.38
2019-03-13T14:38:53.966Z,99526.85
2019-03-13T14:41:26.406Z,99524.81
2019-03-13T14:43:54.737Z,99523.89
2019-03-13T14:46:24.242Z,99516.33
2019-03-13T14:48:53.731Z,99518.50
2019-03-13T14:51:23.257Z,99516.62
2019-03-13T14:53:52.880Z,99516.13
2019-03-13T14:56:22.361Z,99511.68
2019-03-13T14:58:51.895Z,99519.94
2019-03-13T15:01:21.436Z,99518.39
2019-03-13T15:03:50.885Z,99522.92
2019-03-13T15:06:20.451Z,99512.13
2019-03-13T15:08:50.055Z,99519.84
2019-03-13T15:11:19.604Z,99519.16
2019-03-13T15:13:49.222Z,99517.27
2019-03-13T15:16:18.946Z,99515.03
2019-03-13T15:18:48.510Z,99513.92
2019-03-13T15:21:17.980Z,99509.38
2019-03-13T15:23:47.442Z,99521.61
2019-03-13T15:26:16.942Z,99521.11
2019-03-13T15:28:46.422Z,99518.22
2019-03-13T15:31:15.965Z,99534.03
2019-03-13T15:33:45.482Z,99531.61
2019-03-13T15:36:14.931Z,99538.47
2019-03-13T15:38:44.372Z,99547.71
2019-03-13T15:41:13.886Z,99545.92
2019-03-13T15:43:43.443Z,99532.17
2019-03-13T15:46:12.944Z,99533.27
2019-03-13T15:48:42.366Z,99536.08
2019-03-13T15:51:11.872Z,99535.37
2019-03-13T15:53:41.422Z,99536.38
2019-03-13T15:56:10.919Z,99530.25
2019-03-13T15:58:40.386Z,99524.50
2019-03-13T16:01:10.180Z,99524.05
2019-03-13T16:03:39.702Z,99522.08
2019-03-13T16:06:09.156Z,99528.48
2019-03-13T16:08:38.777Z,99530.73
2019-03-13T16:11:08.260Z,99529.88
2019-03-13T16:13:37.765Z,99526.69
2019-03-13T16:16:08.638Z,99524.94
2019-03-13T16:18:38.047Z,99525.06
2019-03-13T16:21:07.527Z,99526.81
2019-03-13T16:23:37.245Z,99531.05
2019-03-13T16:26:06.685Z,99526.59
2019-03-13T16:28:36.097Z,99534.48
2019-03-13T16:31:06.107Z,99526.28
2019-03-13T16:33:35.619Z,99532.31
2019-03-13T16:36:05.076Z,99522.70
2019-03-13T16:38:34.542Z,99528.61
2019-03-13T16:41:04.121Z,99525.80
2019-03-13T16:43:33.634Z,99523.95
2019-03-13T16:46:03.309Z,99521.84
2019-03-13T16:48:33.260Z,99524.86
2019-03-13T16:51:02.735Z,99522.30
2019-03-13T16:53:32.194Z,99513.61
2019-03-13T16:56:01.682Z,99515.47
2019-03-13T16:58:31.232Z,99520.13
2019-03-13T17:01:00.917Z,99516.98
2019-03-13T17:03:30.321Z,99525.61
2019-03-13T17:05:59.785Z,99524.86
2019-03-13T17:08:29.364Z,99524.69
2019-03-13T17:10:58.834Z,99524.73
2019-03-13T17:13:28.255Z,99524.59
2019-03-13T17:15:57.783Z,99529.94
2019-03-13T17:18:27.474Z,99535.25
2019-03-13T17:20:57.081Z,99535.13
2019-03-13T17:23:26.525Z,99533.11
2019-03-13T17:25:55.983Z,99533.81
2019-03-13T17:28:25.440Z,99529.52
2019-03-13T17:30:55.175Z,99530.29
2019-03-13T17:33:24.675Z,99537.93
2019-03-13T17:35:54.104Z,99543.20
2019-03-13T17:38:23.737Z,99538.97
2019-03-13T17:40:53.274Z,99536.61
2019-03-13T17:43:22.798Z,99547.50
2019-03-13T17:45:52.297Z,99540.83
2019-03-13T17:48:21.681Z,99539.25
2019-03-13T17:50:51.159Z,99541.19
2019-03-13T17:53:20.703Z,99535.22
2019-03-13T17:55:50.154Z,99537.58
2019-03-13T17:58:22.563Z,99534.87
2019-03-13T18:00:52.189Z,99525.38
2019-03-13T18:03:22.553Z,99532.73
2019-03-13T18:05:52.105Z,99527.08
2019-03-13T18:08:21.623Z,99520.45
2019-03-13T18:10:51.111Z,99512.50
2019-03-13T18:13:21.603Z,99509.11
2019-03-13T18:15:51.105Z,99513.80
2019-03-13T18:18:20.635Z,99509.97
2019-03-13T18:20:50.071Z,99511.94
2019-03-13T18:23:19.535Z,99511.55
2019-03-13T18:25:49.087Z,99510.77
2019-03-13T18:28:18.683Z,99509.73
2019-03-13T18:30:48.170Z,99517.33
2019-03-13T18:33:17.587Z,99516.81
2019-03-13T18:35:47.067Z,99513.63
2019-03-13T18:38:16.791Z,99512.97
2019-03-13T18:40:46.335Z,99521.92
2019-03-13T18:43:15.837Z,99527.31
2019-03-13T18:45:45.349Z,99529.12
2019-03-13T18:48:14.800Z,99534.75
2019-03-13T18:50:44.272Z,99534.38
2019-03-13T18:53:13.860Z,99528.58
2019-03-13T18:55:43.319Z,99532.75
2019-03-13T18:58:14.117Z,99531.06
2019-03-13T19:00:43.906Z,99537.17
2019-03-13T19:03:13.536Z,99547.56
2019-03-13T19:05:43.082Z,99551.20
2019-03-13T19:08:12.645Z,99540.98
2019-03-13T19:10:42.151Z,99542.30
2019-03-13T19:13:11.733Z,99548.38
2019-03-13T19:15:41.218Z,99554.03
2019-03-13T19:18:10.636Z,99552.79
2019-03-13T19:20:40.147Z,99550.41
2019-03-13T19:23:09.812Z,99550.20
2019-03-13T19:25:39.252Z,99548.63
2019-03-13T19:28:08.728Z,99547.09
2019-03-13T19:30:38.364Z,99551.89
2019-03-13T19:33:07.889Z,99556.31
2019-03-13T19:35:37.339Z,99546.17
2019-03-13T19:38:06.999Z,99555.53
2019-03-13T19:40:36.442Z,99543.84
2019-03-13T19:43:06.061Z,99547.92
2019-03-13T19:45:38.316Z,99542.91
2019-03-13T19:48:08.038Z,99542.09
2019-03-13T19:50:37.508Z,99539.98
2019-03-13T19:53:07.234Z,99536.87
2019-03-13T19:55:36.720Z,99530.08
2019-03-13T19:58:06.324Z,99522.64
2019-03-13T20:00:35.829Z,99527.13
2019-03-13T20:03:05.630Z,99520.31
2019-03-13T20:05:45.274Z,99519.75
2019-03-13T20:08:06.791Z,99517.17
2019-03-13T20:10:36.357Z,99514.31
2019-03-13T20:13:06.076Z,99514.87
2019-03-13T20:15:35.577Z,99515.59
2019-03-13T20:18:05.487Z,99515.56
2019-03-13T20:20:34.952Z,99503.91
2019-03-13T20:23:04.510Z,99503.61
2019-03-13T20:25:36.030Z,99505.68
2019-03-13T20:28:05.728Z,99510.83
2019-03-13T20:30:36.257Z,99511.13
2019-03-13T20:33:06.183Z,99505.28
2019-03-13T20:35:37.028Z,99505.87
2019-03-13T20:38:06.942Z,99504.40
2019-03-13T20:40:36.497Z,99503.31
2019-03-13T20:43:06.546Z,99501.53
2019-03-13T20:45:36.181Z,99503.31
2019-03-13T20:48:05.765Z,99495.92
2019-03-13T20:50:37.667Z,99499.38
2019-03-13T20:53:06.715Z,99503.98
2019-03-13T20:55:36.232Z,99510.77
2019-03-13T20:58:05.763Z,99508.47
2019-03-13T21:00:35.254Z,99502.88
2019-03-13T21:03:05.482Z,99500.26
2019-03-13T21:05:34.965Z,99507.45
2019-03-13T21:08:04.703Z,99506.23
2019-03-13T21:10:34.152Z,99509.09
2019-03-13T21:13:03.811Z,99505.22
2019-03-13T21:15:33.553Z,99506.86
2019-03-13T21:18:03.169Z,99506.30
2019-03-13T21:20:32.692Z,99503.31
2019-03-13T21:23:02.479Z,99496.16
2019-03-13T21:25:32.054Z,99493.34
2019-03-13T21:28:01.564Z,99494.02
2019-03-13T21:30:31.150Z,99490.30
2019-03-13T21:33:00.572Z,99499.81
2019-03-13T21:35:30.043Z,99497.50
2019-03-13T21:37:59.566Z,99495.05
2019-03-13T21:40:32.195Z,99493.22
2019-03-13T21:43:00.165Z,99500.50
2019-03-13T21:45:40.376Z,99499.84
2019-03-13T21:48:01.005Z,99499.05
2019-03-13T21:50:30.462Z,99491.33
2019-03-13T21:53:00.046Z,99491.84
2019-03-13T21:55:29.518Z,99490.98
2019-03-13T21:57:59.021Z,99491.63
2019-03-13T22:00:28.844Z,99485.73
2019-03-13T22:02:58.246Z,99482.46
2019-03-13T22:05:27.842Z,99478.33
2019-03-13T22:07:57.354Z,99475.64
2019-03-13T22:10:26.813Z,99476.29
2019-03-13T22:12:56.319Z,99488.31
2019-03-13T22:15:25.838Z,99480.93
2019-03-13T22:17:55.242Z,99482.52
2019-03-13T22:20:24.736Z,99486.72
2019-03-13T22:22:54.287Z,99476.02
2019-03-13T22:25:23.786Z,99481.53
2019-03-13T22:27:53.188Z,99480.59
2019-03-13T22:30:22.921Z,99484.30
2019-03-13T22:32:52.829Z,99489.83
2019-03-13T22:35:22.283Z,99499.31
2019-03-13T22:37:51.810Z,99491.28
2019-03-13T22:40:21.384Z,99495.27
2019-03-13T22:42:50.890Z,99491.42
2019-03-13T22:45:20.532Z,99484.92
2019-03-13T22:47:50.034Z,99476.66
2019-03-13T22:50:19.629Z,99476.23
2019-03-13T22:52:49.242Z,99474.26
2019-03-13T22:55:18.919Z,99479.41
2019-03-13T22:57:48.430Z,99479.42
2019-03-13T23:00:56.403Z,99471.37
2019-03-13T23:03:27.261Z,99479.86
2019-03-13T23:05:57.536Z,99495.02
2019-03-13T23:08:27.093Z,99486.83
2019-03-13T23:10:56.638Z,99487.83
2019-03-13T23:13:26.365Z,99483.23
2019-03-13T23:15:55.859Z,99478.05
2019-03-13T23:18:25.374Z,99480.57
2019-03-13T23:20:54.815Z,99477.46
2019-03-13T23:23:24.406Z,99478.80
2019-03-13T23:25:53.865Z,99485.59
2019-03-13T23:28:23.295Z,99483.88
2019-03-13T23:30:53.038Z,99481.79
2019-03-13T23:33:22.550Z,99478.39
2019-03-13T23:35:51.987Z,99486.83
2019-03-13T23:38:21.416Z,99487.46
2019-03-13T23:40:50.863Z,99492.70
2019-03-13T23:43:20.553Z,99487.75
2019-03-13T23:45:50.031Z,99495.55
2019-03-13T23:48:19.423Z,99496.92
2019-03-13T23:50:48.882Z,99495.16
2019-03-13T23:53:18.426Z,99499.54
2019-03-13T23:55:47.851Z,99500.11
2019-03-13T23:58:17.256Z,99505.16
